Time;durP1;ratioP1;P1;durP2;ratioP2;P2;SDS_P1;SDS_P2;PMS_P1;PMS_P2;Temp;Humidity;BMP_temperature;BMP_pressure;BME280_temperature;BME280_humidity;BME280_pressure;Samples;Min_cycle;Max_cycle;Signal;HPM_P1;HPM_P2
2023/07/30 00:02:18;;;;;;;16.35;4.88;;;17.00;99.90;;;;;;5081363;28;20101;-71
2023/07/30 00:04:45;;;;;;;15.98;5.57;;;17.00;99.90;;;;;;5075411;28;20044;-71
2023/07/30 00:07:11;;;;;;;17.10;4.72;;;17.00;99.90;;;;;;5079326;28;20051;-71
2023/07/30 00:09:38;;;;;;;20.23;5.22;;;17.00;99.90;;;;;;5076545;28;20052;-71
2023/07/30 00:12:05;;;;;;;17.00;5.65;;;17.00;99.90;;;;;;5084432;28;20036;-71
2023/07/30 00:14:31;;;;;;;23.42;5.60;;;17.00;99.90;;;;;;5084090;28;20072;-71
2023/07/30 00:16:57;;;;;;;23.80;6.13;;;17.00;99.90;;;;;;5076212;28;20126;-71
2023/07/30 00:19:23;;;;;;;21.80;5.60;;;16.90;99.90;;;;;;5083750;28;21097;-71
2023/07/30 00:21:48;;;;;;;19.60;5.38;;;16.90;99.90;;;;;;5083979;28;20040;-71
2023/07/30 00:24:14;;;;;;;19.77;5.45;;;16.90;99.90;;;;;;5076246;28;20040;-71
2023/07/30 00:26:40;;;;;;;28.23;6.15;;;16.90;99.90;;;;;;5081282;28;20100;-72
2023/07/30 00:29:06;;;;;;;19.33;5.68;;;16.90;99.90;;;;;;5077067;28;20123;-71
2023/07/30 00:31:32;;;;;;;23.42;5.85;;;16.80;99.90;;;;;;5084416;28;20780;-71
2023/07/30 00:33:57;;;;;;;24.77;5.93;;;16.80;99.90;;;;;;5081849;28;20085;-71
2023/07/30 00:36:23;;;;;;;21.50;6.40;;;16.80;99.90;;;;;;5070998;28;20056;-71
2023/07/30 00:38:49;;;;;;;19.17;5.60;;;16.80;99.90;;;;;;5078930;28;20036;-71
2023/07/30 00:41:15;;;;;;;21.40;5.82;;;16.80;99.90;;;;;;5078687;28;20036;-71
2023/07/30 00:43:40;;;;;;;24.35;7.03;;;16.80;99.90;;;;;;5080110;28;20502;-70
2023/07/30 00:46:06;;;;;;;21.20;6.10;;;16.80;99.90;;;;;;5080139;28;20046;-70
2023/07/30 00:48:32;;;;;;;26.60;6.78;;;16.80;99.90;;;;;;5078565;28;20042;-71
2023/07/30 00:50:59;;;;;;;21.75;6.70;;;16.70;99.90;;;;;;5078975;28;20067;-71
2023/07/30 00:53:27;;;;;;;23.17;6.80;;;16.70;99.90;;;;;;5079033;28;20040;-71
2023/07/30 00:55:53;;;;;;;20.15;6.10;;;16.70;99.90;;;;;;5078248;28;20050;-71
2023/07/30 00:58:21;;;;;;;21.33;6.68;;;16.70;99.90;;;;;;5079779;28;20111;-71
2023/07/30 01:00:47;;;;;;;22.42;6.88;;;16.70;99.90;;;;;;5079626;28;20463;-71
2023/07/30 01:03:13;;;;;;;18.80;6.75;;;16.60;99.90;;;;;;5079762;28;20048;-70
2023/07/30 01:05:39;;;;;;;28.55;7.47;;;16.60;99.90;;;;;;5078976;28;20047;-71
2023/07/30 01:08:05;;;;;;;25.25;7.68;;;16.60;99.90;;;;;;5078410;28;20047;-71
2023/07/30 01:10:32;;;;;;;18.73;6.10;;;16.50;99.90;;;;;;5082869;28;20099;-72
2023/07/30 01:13:03;;;;;;;22.85;7.57;;;16.60;99.90;;;;;;5074142;28;20052;-74
2023/07/30 01:15:30;;;;;;;22.25;7.38;;;16.50;99.90;;;;;;5083285;28;20040;-75
2023/07/30 01:17:56;;;;;;;21.40;6.82;;;16.50;99.90;;;;;;5072882;28;20093;-73
2023/07/30 01:20:22;;;;;;;20.42;6.30;;;16.50;99.90;;;;;;5082580;28;20492;-73
2023/07/30 01:22:48;;;;;;;20.48;6.53;;;16.50;99.90;;;;;;5083860;28;20040;-73
2023/07/30 01:25:15;;;;;;;21.15;6.78;;;16.50;99.90;;;;;;5082519;28;20040;-73
2023/07/30 01:27:47;;;;;;;23.02;7.07;;;16.50;99.90;;;;;;5081062;28;20043;-73
2023/07/30 01:30:16;;;;;;;20.10;6.05;;;16.50;99.90;;;;;;5083039;28;20032;-73
2023/07/30 01:32:42;;;;;;;23.50;6.18;;;16.50;99.90;;;;;;5082160;28;20052;-73
2023/07/30 01:35:09;;;;;;;28.10;7.85;;;16.50;99.90;;;;;;5081386;28;20466;-73
2023/07/30 01:37:37;;;;;;;21.35;7.05;;;16.40;99.90;;;;;;5081387;28;20044;-73
2023/07/30 01:40:03;;;;;;;25.63;6.45;;;16.40;99.90;;;;;;5083192;28;20048;-73
2023/07/30 01:42:30;;;;;;;15.93;5.45;;;16.40;99.90;;;;;;5082269;28;20044;-73
2023/07/30 01:44:56;;;;;;;16.85;6.03;;;16.40;99.90;;;;;;5087745;28;20036;-73
2023/07/30 01:47:22;;;;;;;24.17;5.85;;;16.40;99.90;;;;;;5076290;28;20429;-73
2023/07/30 01:49:48;;;;;;;26.05;6.97;;;16.40;99.90;;;;;;5085768;28;20044;-73
2023/07/30 01:52:13;;;;;;;20.20;5.95;;;16.40;99.90;;;;;;5081556;28;20122;-73
2023/07/30 01:54:39;;;;;;;20.13;6.28;;;16.40;99.90;;;;;;5082331;28;20043;-73
2023/07/30 01:57:05;;;;;;;32.47;6.50;;;16.40;99.90;;;;;;5081554;28;20073;-73
2023/07/30 01:59:31;;;;;;;20.85;6.05;;;16.40;99.90;;;;;;5082754;28;20841;-74
2023/07/30 02:01:57;;;;;;;23.92;6.05;;;16.40;99.90;;;;;;5082084;28;20154;-74
2023/07/30 02:04:22;;;;;;;20.70;6.57;;;16.40;99.90;;;;;;5071776;28;20051;-73
2023/07/30 02:06:48;;;;;;;18.20;5.60;;;16.40;99.90;;;;;;5081818;28;20166;-73
2023/07/30 02:09:14;;;;;;;22.52;5.65;;;16.40;99.90;;;;;;5082303;28;20048;-73
2023/07/30 02:11:40;;;;;;;20.95;5.70;;;16.40;99.90;;;;;;5074021;28;20101;-73
2023/07/30 02:14:06;;;;;;;21.83;6.30;;;16.40;99.90;;;;;;5082032;28;20863;-73
2023/07/30 02:16:31;;;;;;;20.58;5.72;;;16.40;99.90;;;;;;5071043;28;20040;-73
2023/07/30 02:18:57;;;;;;;25.30;6.47;;;16.40;99.90;;;;;;5080017;28;20110;-74
2023/07/30 02:21:23;;;;;;;23.42;7.00;;;16.40;99.90;;;;;;5080033;28;20047;-73
2023/07/30 02:23:48;;;;;;;23.05;6.07;;;16.40;99.90;;;;;;5083490;28;20043;-73
2023/07/30 02:26:14;;;;;;;22.58;6.13;;;16.40;99.90;;;;;;5070968;28;20051;-73
2023/07/30 02:28:40;;;;;;;21.88;5.55;;;16.40;99.90;;;;;;5084932;28;20202;-73
2023/07/30 02:31:06;;;;;;;26.73;5.57;;;16.40;99.90;;;;;;5083759;28;20044;-73
2023/07/30 02:33:31;;;;;;;21.50;5.80;;;16.40;99.90;;;;;;5081782;28;20077;-73
2023/07/30 02:35:57;;;;;;;29.67;6.53;;;16.40;99.90;;;;;;5072456;28;20033;-73
2023/07/30 02:38:23;;;;;;;31.88;6.70;;;16.40;99.90;;;;;;5083606;28;20040;-73
2023/07/30 02:40:49;;;;;;;28.45;6.47;;;16.40;99.90;;;;;;5082055;28;20417;-73
2023/07/30 02:43:14;;;;;;;23.38;5.97;;;16.30;99.90;;;;;;5082390;28;20040;-72
2023/07/30 02:45:40;;;;;;;25.40;6.05;;;16.30;99.90;;;;;;5083481;28;20157;-72
2023/07/30 02:48:06;;;;;;;21.42;5.90;;;16.30;99.90;;;;;;5079417;28;20044;-73
2023/07/30 02:50:32;;;;;;;22.35;5.95;;;16.30;99.90;;;;;;5074248;28;20048;-73
2023/07/30 02:52:57;;;;;;;23.52;6.30;;;16.30;99.90;;;;;;5073457;28;20051;-73
2023/07/30 02:55:23;;;;;;;23.60;5.53;;;16.30;99.90;;;;;;5084319;28;20037;-73
2023/07/30 02:57:49;;;;;;;26.52;5.32;;;16.30;99.90;;;;;;5083704;28;20366;-73
2023/07/30 03:00:15;;;;;;;18.52;5.22;;;16.30;99.90;;;;;;5083630;28;20047;-73
2023/07/30 03:02:41;;;;;;;23.42;5.75;;;16.30;99.90;;;;;;5084811;28;20417;-74
2023/07/30 03:05:07;;;;;;;21.70;5.80;;;16.30;99.90;;;;;;5079748;28;20050;-72
2023/07/30 03:07:33;;;;;;;20.67;5.57;;;16.30;99.90;;;;;;5081627;28;20040;-73
2023/07/30 03:09:58;;;;;;;20.70;5.85;;;16.20;99.90;;;;;;5083206;28;20044;-73
2023/07/30 03:12:24;;;;;;;22.95;6.03;;;16.20;99.90;;;;;;5084772;28;20040;-73
2023/07/30 03:14:50;;;;;;;21.73;5.50;;;16.20;99.90;;;;;;5084468;28;20075;-74
2023/07/30 03:17:16;;;;;;;26.02;6.38;;;16.20;99.90;;;;;;5086000;28;20143;-73
2023/07/30 03:19:41;;;;;;;22.65;5.57;;;16.20;99.90;;;;;;5082832;28;20048;-73
2023/07/30 03:22:07;;;;;;;30.73;6.63;;;16.20;99.90;;;;;;5075023;28;20101;-73
2023/07/30 03:24:33;;;;;;;25.83;5.93;;;16.10;99.90;;;;;;5083538;28;20047;-73
2023/07/30 03:26:59;;;;;;;25.10;5.78;;;16.10;99.90;;;;;;5082234;28;20120;-73
2023/07/30 03:29:24;;;;;;;25.90;6.47;;;16.10;99.90;;;;;;5075437;28;20052;-73
2023/07/30 03:31:50;;;;;;;25.90;5.80;;;16.10;99.90;;;;;;5082570;28;20581;-73
2023/07/30 03:34:16;;;;;;;19.10;5.65;;;16.10;99.90;;;;;;5083215;28;20049;-73
2023/07/30 03:36:42;;;;;;;24.00;6.15;;;16.00;99.90;;;;;;5082751;28;20504;-73
2023/07/30 03:39:07;;;;;;;23.30;5.50;;;16.00;99.90;;;;;;5082713;28;20032;-72
2023/07/30 03:41:35;;;;;;;21.38;5.40;;;16.00;99.90;;;;;;5086079;28;20067;-73
2023/07/30 03:44:00;;;;;;;17.77;5.18;;;16.00;99.90;;;;;;5084010;28;20035;-73
2023/07/30 03:46:26;;;;;;;18.15;5.07;;;16.00;99.90;;;;;;5084420;28;20039;-73
2023/07/30 03:48:52;;;;;;;25.50;5.70;;;16.00;99.90;;;;;;5084124;28;20036;-72
2023/07/30 03:51:18;;;;;;;24.38;5.32;;;16.00;99.90;;;;;;5078344;28;20158;-72
2023/07/30 03:53:43;;;;;;;22.67;6.32;;;16.00;99.90;;;;;;5076289;28;20069;-72
2023/07/30 03:56:09;;;;;;;21.60;4.63;;;16.00;99.90;;;;;;5069461;28;20081;-73
2023/07/30 03:58:35;;;;;;;23.23;5.40;;;16.00;99.90;;;;;;5084701;28;20036;-73
2023/07/30 04:01:01;;;;;;;20.52;4.97;;;16.00;99.90;;;;;;5083901;28;20043;-73
2023/07/30 04:03:27;;;;;;;23.67;5.40;;;16.00;99.90;;;;;;5083160;28;20097;-73
2023/07/30 04:05:53;;;;;;;26.98;5.47;;;16.00;99.90;;;;;;5085476;28;20044;-73
2023/07/30 04:08:19;;;;;;;25.02;5.30;;;16.00;99.90;;;;;;5085262;28;20046;-72
2023/07/30 04:10:44;;;;;;;22.30;5.75;;;16.00;99.90;;;;;;5086334;28;20046;-72
2023/07/30 04:13:10;;;;;;;17.80;4.60;;;16.00;99.90;;;;;;5080975;28;20110;-73
2023/07/30 04:15:36;;;;;;;20.58;5.20;;;15.90;99.90;;;;;;5084471;28;20048;-72
2023/07/30 04:18:02;;;;;;;22.75;5.20;;;16.00;99.90;;;;;;5078581;28;20134;-73
2023/07/30 04:20:27;;;;;;;17.50;4.32;;;16.00;99.90;;;;;;5084333;28;20072;-72
2023/07/30 04:22:53;;;;;;;19.38;5.05;;;16.00;99.90;;;;;;5084816;28;20032;-73
2023/07/30 04:25:19;;;;;;;21.48;5.72;;;16.00;99.90;;;;;;5085882;28;20558;-73
2023/07/30 04:27:44;;;;;;;24.05;5.03;;;16.00;99.90;;;;;;5066672;28;20501;-72
2023/07/30 04:30:10;;;;;;;22.05;4.82;;;16.00;99.90;;;;;;5085982;28;20107;-72
2023/07/30 04:32:36;;;;;;;17.67;5.10;;;16.00;99.90;;;;;;5083754;28;20143;-73
2023/07/30 04:35:03;;;;;;;18.63;4.45;;;16.00;99.90;;;;;;5084801;28;20040;-73
2023/07/30 04:37:29;;;;;;;19.10;4.75;;;16.00;99.90;;;;;;5086014;28;20596;-73
2023/07/30 04:39:54;;;;;;;21.40;5.20;;;16.00;99.90;;;;;;5086368;28;20220;-72
2023/07/30 04:42:20;;;;;;;16.20;4.80;;;16.00;99.90;;;;;;5085590;28;20720;-72
2023/07/30 04:44:46;;;;;;;22.15;4.35;;;16.10;99.90;;;;;;5089071;28;20051;-73
2023/07/30 04:47:12;;;;;;;22.48;4.70;;;16.10;99.90;;;;;;5088538;28;20478;-73
2023/07/30 04:49:40;;;;;;;18.20;4.70;;;16.20;99.90;;;;;;5088957;28;20052;-74
2023/07/30 04:52:07;;;;;;;21.45;5.03;;;16.20;99.90;;;;;;5088128;28;20040;-72
2023/07/30 04:54:33;;;;;;;21.08;4.20;;;16.20;99.90;;;;;;5085504;28;20047;-73
2023/07/30 04:56:59;;;;;;;18.45;4.13;;;16.20;99.90;;;;;;5083268;28;20489;-73
2023/07/30 04:59:24;;;;;;;17.13;4.15;;;16.20;99.90;;;;;;5089651;28;20042;-73
2023/07/30 05:01:50;;;;;;;21.42;3.67;;;16.20;99.90;;;;;;5086852;28;20039;-73
2023/07/30 05:04:16;;;;;;;15.15;3.30;;;16.20;99.90;;;;;;5083861;28;20059;-73
2023/07/30 05:06:42;;;;;;;19.77;3.90;;;16.20;99.90;;;;;;5089927;28;20052;-72
2023/07/30 05:09:07;;;;;;;18.67;3.42;;;16.30;99.90;;;;;;5088548;28;20044;-72
2023/07/30 05:11:33;;;;;;;18.02;4.03;;;16.30;99.90;;;;;;5088063;28;20033;-73
2023/07/30 05:13:59;;;;;;;15.30;3.35;;;16.30;99.90;;;;;;5089716;28;20040;-73
2023/07/30 05:16:24;;;;;;;18.67;3.55;;;16.30;99.90;;;;;;5089279;28;20828;-73
2023/07/30 05:18:50;;;;;;;18.30;3.70;;;16.30;99.90;;;;;;5089865;28;20089;-73
2023/07/30 05:21:16;;;;;;;19.73;4.20;;;16.30;99.90;;;;;;5089673;28;20784;-73
2023/07/30 05:23:41;;;;;;;19.88;4.60;;;16.30;99.90;;;;;;5089565;28;22070;-73
2023/07/30 05:26:07;;;;;;;16.70;4.75;;;16.40;99.90;;;;;;5087798;28;20046;-73
2023/07/30 05:28:33;;;;;;;19.23;4.28;;;16.50;99.90;;;;;;5089187;28;20043;-73
2023/07/30 05:30:59;;;;;;;14.20;3.25;;;16.60;99.90;;;;;;5087594;28;20085;-74
2023/07/30 05:33:24;;;;;;;20.80;4.13;;;16.60;99.90;;;;;;5084086;28;20127;-73
2023/07/30 05:35:50;;;;;;;20.10;3.70;;;16.50;99.90;;;;;;5089103;28;20032;-74
2023/07/30 05:38:16;;;;;;;14.82;3.28;;;16.60;99.90;;;;;;5089232;28;20840;-74
2023/07/30 05:40:42;;;;;;;23.38;4.80;;;16.50;99.90;;;;;;5089025;28;20071;-72
2023/07/30 05:43:07;;;;;;;15.10;3.35;;;16.60;99.90;;;;;;5087453;28;20397;-72
2023/07/30 05:45:34;;;;;;;17.30;3.30;;;16.60;99.90;;;;;;5088416;28;20036;-72
2023/07/30 05:48:00;;;;;;;15.75;3.30;;;16.50;99.90;;;;;;5089212;28;20039;-72
2023/07/30 05:50:26;;;;;;;13.60;3.17;;;16.60;99.90;;;;;;5088726;28;20036;-72
2023/07/30 05:52:52;;;;;;;17.35;3.60;;;16.60;99.90;;;;;;5088573;28;20081;-73
2023/07/30 05:55:17;;;;;;;14.77;3.72;;;16.60;99.90;;;;;;5087567;28;20752;-73
2023/07/30 05:57:43;;;;;;;16.10;3.10;;;16.60;99.90;;;;;;5086726;28;20036;-73
2023/07/30 06:00:09;;;;;;;15.80;3.22;;;16.60;99.90;;;;;;5088339;28;20039;-72
2023/07/30 06:02:35;;;;;;;17.42;2.92;;;16.70;99.90;;;;;;5087464;28;20400;-72
2023/07/30 06:05:01;;;;;;;19.80;3.17;;;16.70;99.90;;;;;;5088558;28;20024;-73
2023/07/30 06:07:26;;;;;;;12.10;2.78;;;16.70;99.90;;;;;;5088356;28;20382;-73
2023/07/30 06:09:52;;;;;;;16.80;4.05;;;16.70;99.90;;;;;;5087730;28;20040;-73
2023/07/30 06:12:18;;;;;;;15.13;3.20;;;16.70;99.90;;;;;;5086897;28;20520;-72
2023/07/30 06:14:43;;;;;;;17.65;3.33;;;16.70;99.90;;;;;;5088034;28;20162;-72
2023/07/30 06:17:09;;;;;;;16.48;3.35;;;16.70;99.90;;;;;;5086903;28;20043;-70
2023/07/30 06:19:35;;;;;;;16.75;3.30;;;16.80;99.90;;;;;;5088675;28;20821;-73
2023/07/30 06:22:00;;;;;;;15.73;3.05;;;16.80;99.90;;;;;;5084571;28;20040;-71
2023/07/30 06:24:26;;;;;;;18.73;3.30;;;16.80;99.90;;;;;;5088296;28;20080;-71
2023/07/30 06:26:52;;;;;;;14.55;3.22;;;16.80;99.90;;;;;;5086924;28;20044;-71
2023/07/30 06:29:17;;;;;;;13.25;3.00;;;16.80;99.90;;;;;;5085755;28;20039;-71
2023/07/30 06:31:43;;;;;;;12.23;2.80;;;16.90;99.90;;;;;;5081856;28;20090;-72
2023/07/30 06:34:09;;;;;;;12.23;2.55;;;16.90;99.90;;;;;;5083861;28;20032;-73
2023/07/30 06:36:35;;;;;;;13.77;2.65;;;16.90;99.90;;;;;;5084648;28;20036;-73
2023/07/30 06:39:01;;;;;;;16.77;3.20;;;16.90;99.90;;;;;;5082255;28;21381;-72
2023/07/30 06:41:26;;;;;;;19.58;3.60;;;16.90;99.90;;;;;;5084945;28;20462;-72
2023/07/30 06:43:52;;;;;;;16.70;4.30;;;17.00;99.90;;;;;;5085614;28;20040;-72
2023/07/30 06:46:18;;;;;;;17.92;3.58;;;17.00;99.90;;;;;;5085664;28;20122;-73
2023/07/30 06:48:43;;;;;;;15.63;3.17;;;17.00;99.90;;;;;;5087177;28;20040;-74
2023/07/30 06:51:10;;;;;;;21.65;3.42;;;17.00;99.90;;;;;;5087239;28;20504;-74
2023/07/30 06:53:36;;;;;;;14.77;3.50;;;17.10;99.90;;;;;;5087364;28;20560;-74
2023/07/30 06:56:03;;;;;;;14.52;3.50;;;17.10;99.90;;;;;;5087526;28;20825;-74
2023/07/30 06:58:28;;;;;;;14.27;2.83;;;17.10;99.90;;;;;;5085345;28;20467;-75
2023/07/30 07:00:54;;;;;;;15.20;2.92;;;17.20;99.90;;;;;;5084900;28;20101;-73
2023/07/30 07:03:20;;;;;;;11.35;3.17;;;17.20;99.90;;;;;;5086829;28;20027;-74
2023/07/30 07:05:54;;;;;;;10.68;2.45;;;17.20;99.90;;;;;;5086607;28;20036;-74
2023/07/30 07:08:19;;;;;;;12.82;2.50;;;17.20;99.90;;;;;;5062255;28;20567;-74
2023/07/30 07:10:45;;;;;;;12.80;2.60;;;17.30;99.90;;;;;;5087226;28;20039;-74
2023/07/30 07:13:14;;;;;;;15.45;3.90;;;17.30;99.90;;;;;;5085673;28;20143;-74
2023/07/30 07:15:44;;;;;;;12.77;2.58;;;17.30;99.90;;;;;;5086451;28;20131;-74
2023/07/30 07:18:10;;;;;;;18.05;3.05;;;17.30;99.90;;;;;;5084438;28;20058;-75
2023/07/30 07:20:39;;;;;;;14.35;2.70;;;17.30;99.90;;;;;;5074839;28;20079;-75
2023/07/30 07:23:05;;;;;;;14.85;2.63;;;17.40;99.90;;;;;;5085240;28;20040;-75
2023/07/30 07:25:31;;;;;;;15.52;2.70;;;17.50;99.90;;;;;;5084159;28;20105;-72
2023/07/30 07:27:56;;;;;;;11.75;2.45;;;17.60;99.90;;;;;;5085491;28;20060;-74
2023/07/30 07:30:22;;;;;;;11.02;2.15;;;17.70;99.90;;;;;;5084669;28;20066;-73
2023/07/30 07:32:51;;;;;;;17.70;2.78;;;17.80;99.90;;;;;;5080788;28;20059;-75
2023/07/30 07:35:18;;;;;;;12.07;2.50;;;17.80;99.90;;;;;;5084428;28;20036;-74
2023/07/30 07:37:44;;;;;;;15.10;2.55;;;18.00;99.90;;;;;;5086732;28;20103;-75
2023/07/30 07:40:10;;;;;;;11.57;2.50;;;18.10;99.90;;;;;;5084913;28;20039;-74
2023/07/30 07:42:37;;;;;;;14.30;3.33;;;18.20;99.90;;;;;;5077408;28;20393;-73
2023/07/30 07:45:03;;;;;;;15.07;2.35;;;18.20;99.90;;;;;;5083699;28;20040;-73
2023/07/30 07:47:29;;;;;;;13.80;2.42;;;18.20;99.90;;;;;;5080218;28;20052;-72
2023/07/30 07:49:55;;;;;;;17.20;2.88;;;18.20;99.90;;;;;;5080285;28;20373;-74
2023/07/30 07:52:20;;;;;;;13.05;2.50;;;18.20;99.90;;;;;;5073103;28;20032;-71
2023/07/30 07:54:46;;;;;;;12.20;2.05;;;18.10;99.90;;;;;;5080090;28;20097;-72
2023/07/30 07:57:12;;;;;;;18.92;3.33;;;18.10;99.90;;;;;;5081563;28;20040;-72
2023/07/30 07:59:37;;;;;;;11.02;1.90;;;18.10;99.90;;;;;;5082096;28;20044;-71
2023/07/30 08:02:03;;;;;;;11.57;2.75;;;18.00;99.90;;;;;;5075319;28;20119;-72
2023/07/30 08:04:29;;;;;;;19.05;2.42;;;18.00;99.90;;;;;;5078506;28;20083;-72
2023/07/30 08:06:59;;;;;;;13.02;2.15;;;18.00;99.90;;;;;;5093918;28;20119;-71
2023/07/30 08:09:25;;;;;;;12.60;2.47;;;17.90;99.90;;;;;;5076399;28;20048;-71
2023/07/30 08:11:51;;;;;;;11.20;1.88;;;17.90;99.90;;;;;;5078357;28;21081;-72
2023/07/30 08:14:16;;;;;;;12.10;2.10;;;17.90;99.90;;;;;;5077233;28;20040;-72
2023/07/30 08:16:42;;;;;;;14.63;2.70;;;17.80;99.90;;;;;;5078466;28;20043;-72
2023/07/30 08:19:08;;;;;;;12.73;2.30;;;17.80;99.90;;;;;;5075708;28;20044;-72
2023/07/30 08:21:33;;;;;;;12.57;2.67;;;17.80;99.90;;;;;;5078218;28;20086;-71
2023/07/30 08:23:59;;;;;;;14.27;2.42;;;17.80;99.90;;;;;;5084425;28;20040;-71
2023/07/30 08:26:25;;;;;;;14.52;2.15;;;17.90;99.90;;;;;;5085144;28;20040;-71
2023/07/30 08:28:51;;;;;;;10.18;2.63;;;17.90;99.90;;;;;;5085463;28;20115;-71
2023/07/30 08:31:16;;;;;;;13.55;2.60;;;17.90;99.90;;;;;;5085749;28;20042;-72
2023/07/30 08:33:42;;;;;;;9.48;1.83;;;17.90;99.90;;;;;;5085902;28;20052;-71
2023/07/30 08:36:08;;;;;;;13.63;2.42;;;17.90;99.90;;;;;;5077886;28;20127;-70
2023/07/30 08:38:33;;;;;;;13.60;2.38;;;17.90;99.90;;;;;;5079173;28;20765;-71
2023/07/30 08:40:59;;;;;;;15.45;3.03;;;17.90;99.90;;;;;;5080340;28;20143;-71
2023/07/30 08:43:26;;;;;;;8.68;2.13;;;17.90;99.90;;;;;;5079405;28;20040;-71
2023/07/30 08:45:51;;;;;;;12.40;2.20;;;17.90;99.90;;;;;;5079110;28;20044;-71
2023/07/30 08:48:17;;;;;;;10.50;1.90;;;17.90;99.90;;;;;;5070916;28;20051;-72
2023/07/30 08:50:44;;;;;;;10.60;2.15;;;17.90;99.90;;;;;;5069831;28;20044;-72
2023/07/30 08:53:10;;;;;;;9.73;2.28;;;18.00;99.90;;;;;;5079978;28;20487;-72
2023/07/30 08:55:37;;;;;;;16.35;2.65;;;18.00;99.90;;;;;;5078347;28;20070;-72
2023/07/30 08:58:04;;;;;;;11.88;2.03;;;18.10;99.90;;;;;;5079712;28;20044;-72
2023/07/30 09:00:36;;;;;;;13.40;2.30;;;18.10;99.90;;;;;;5075878;28;20060;-72
2023/07/30 09:03:04;;;;;;;11.45;2.30;;;18.20;99.90;;;;;;5078994;28;20589;-72
2023/07/30 09:05:30;;;;;;;16.67;2.53;;;18.20;99.90;;;;;;5071715;28;20400;-72
2023/07/30 09:07:57;;;;;;;14.52;2.35;;;18.30;99.90;;;;;;5074960;28;20040;-73
2023/07/30 09:10:23;;;;;;;9.63;2.20;;;18.30;99.90;;;;;;5075088;28;20044;-71
2023/07/30 09:12:59;;;;;;;12.88;2.20;;;18.30;99.90;;;;;;5074388;28;20043;-71
2023/07/30 09:15:39;;;;;;;10.95;2.10;;;18.30;99.90;;;;;;5072145;28;20712;-72
2023/07/30 09:18:06;;;;;;;11.07;2.22;;;18.30;99.90;;;;;;5074770;28;20043;-73
2023/07/30 09:20:39;;;;;;;10.68;1.83;;;18.30;99.90;;;;;;5075334;28;20051;-72
2023/07/30 09:23:06;;;;;;;10.73;1.67;;;18.30;99.90;;;;;;5080104;28;20051;-72
2023/07/30 09:25:33;;;;;;;8.95;1.75;;;18.30;99.90;;;;;;5073610;28;21445;-72
2023/07/30 09:27:59;;;;;;;9.10;2.00;;;18.30;99.90;;;;;;5073272;28;20135;-72
2023/07/30 09:30:27;;;;;;;6.80;1.45;;;18.30;99.90;;;;;;5077437;28;20051;-71
2023/07/30 09:32:54;;;;;;;7.97;1.55;;;18.20;99.90;;;;;;5077765;28;20629;-71
2023/07/30 09:35:20;;;;;;;6.13;1.30;;;18.20;99.90;;;;;;5069577;28;20075;-72
2023/07/30 09:37:46;;;;;;;5.18;1.30;;;18.20;99.90;;;;;;5068918;28;20052;-72
2023/07/30 09:40:18;;;;;;;8.40;1.50;;;18.20;99.90;;;;;;5076552;28;20051;-71
2023/07/30 09:42:48;;;;;;;8.27;1.35;;;18.20;99.90;;;;;;5077185;28;20071;-71
2023/07/30 09:45:25;;;;;;;7.47;1.40;;;18.20;99.90;;;;;;5076912;28;20050;-71
2023/07/30 09:47:53;;;;;;;7.65;1.60;;;18.20;99.90;;;;;;5076924;28;20048;-72
2023/07/30 09:50:19;;;;;;;8.38;1.63;;;18.30;99.90;;;;;;5076251;28;20040;-72
2023/07/30 09:52:46;;;;;;;6.72;1.40;;;18.30;99.90;;;;;;5076355;28;20048;-72
2023/07/30 09:55:12;;;;;;;9.27;1.65;;;18.30;99.90;;;;;;5082640;28;20040;-71
2023/07/30 09:57:39;;;;;;;7.05;1.73;;;18.30;99.90;;;;;;5079678;28;20097;-71
2023/07/30 10:00:07;;;;;;;8.30;1.45;;;18.30;99.90;;;;;;5075977;28;20176;-71
2023/07/30 10:02:38;;;;;;;8.77;1.70;;;18.40;99.90;;;;;;5077715;28;20530;-72
2023/07/30 10:05:10;;;;;;;12.68;1.77;;;18.50;99.90;;;;;;5077032;28;20040;-73
2023/07/30 10:07:42;;;;;;;7.68;1.45;;;18.50;99.90;;;;;;5084560;28;20051;-72
2023/07/30 10:10:10;;;;;;;7.60;1.50;;;18.60;99.90;;;;;;5084452;28;20119;-71
2023/07/30 10:12:37;;;;;;;10.77;2.72;;;18.80;99.90;;;;;;5082048;28;20141;-71
2023/07/30 10:15:03;;;;;;;11.57;1.67;;;18.90;99.90;;;;;;5085468;28;20044;-72
2023/07/30 10:17:32;;;;;;;6.93;1.30;;;18.90;99.90;;;;;;5083176;28;20052;-72
2023/07/30 10:20:17;;;;;;;9.30;1.48;;;19.00;99.90;;;;;;5080761;28;20698;-72
2023/07/30 10:22:45;;;;;;;8.77;2.10;;;19.00;99.90;;;;;;5074764;28;20036;-70
2023/07/30 10:25:12;;;;;;;15.15;2.40;;;19.00;99.90;;;;;;5080219;28;20036;-71
2023/07/30 10:27:40;;;;;;;12.05;2.50;;;19.00;99.90;;;;;;5082303;28;20081;-72
2023/07/30 10:30:14;;;;;;;9.00;1.80;;;19.00;99.90;;;;;;5074217;28;20122;-71
2023/07/30 10:32:52;;;;;;;15.15;2.40;;;18.90;99.90;;;;;;5083602;28;20494;-69
2023/07/30 10:35:41;;;;;;;17.05;2.13;;;18.80;99.90;;;;;;5083075;28;20048;-71
2023/07/30 10:38:14;;;;;;;12.02;2.38;;;18.80;99.90;;;;;;5071480;28;20137;-74
2023/07/30 10:40:40;;;;;;;14.30;2.75;;;18.90;99.90;;;;;;5082368;28;20040;-74
2023/07/30 10:43:16;;;;;;;9.88;2.15;;;19.00;99.90;;;;;;5082310;28;20059;-74
2023/07/30 10:45:51;;;;;;;9.43;2.35;;;19.00;99.90;;;;;;5074608;28;20110;-74
2023/07/30 10:48:17;;;;;;;13.18;2.50;;;19.00;99.90;;;;;;5083338;28;20040;-73
2023/07/30 10:50:48;;;;;;;13.32;2.20;;;19.00;99.90;;;;;;5083034;28;20078;-74
2023/07/30 10:53:16;;;;;;;11.07;1.80;;;19.10;99.90;;;;;;5062437;28;20141;-75
2023/07/30 10:55:42;;;;;;;13.85;3.15;;;19.20;99.90;;;;;;5084022;28;20044;-75
2023/07/30 10:58:08;;;;;;;9.57;1.70;;;19.30;99.90;;;;;;5084206;28;20048;-74
2023/07/30 11:00:33;;;;;;;11.82;2.03;;;19.30;99.90;;;;;;5084754;28;20572;-75
2023/07/30 11:02:59;;;;;;;15.23;2.63;;;19.40;99.90;;;;;;5085712;28;20097;-75
2023/07/30 11:05:25;;;;;;;9.43;2.03;;;19.50;99.90;;;;;;5086184;28;20059;-75
2023/07/30 11:07:52;;;;;;;10.40;2.00;;;19.60;99.90;;;;;;5084316;28;20477;-75
2023/07/30 11:10:18;;;;;;;11.82;1.98;;;19.60;99.90;;;;;;5083508;28;20067;-74
2023/07/30 11:12:43;;;;;;;13.43;2.33;;;19.70;99.90;;;;;;5083108;28;20440;-74
2023/07/30 11:15:12;;;;;;;11.02;2.33;;;19.80;99.90;;;;;;5086773;28;20043;-74
2023/07/30 11:17:38;;;;;;;11.95;2.78;;;19.80;99.90;;;;;;5085729;28;20396;-75
2023/07/30 11:20:04;;;;;;;9.85;2.08;;;19.80;99.90;;;;;;5081133;28;20032;-75
2023/07/30 11:22:31;;;;;;;11.38;2.30;;;19.90;99.90;;;;;;5076896;28;20186;-74
2023/07/30 11:24:57;;;;;;;11.45;1.90;;;20.00;99.90;;;;;;5083901;28;20122;-75
2023/07/30 11:27:23;;;;;;;8.27;2.13;;;20.00;99.90;;;;;;5086789;28;20078;-77
2023/07/30 11:29:56;;;;;;;11.90;2.75;;;20.00;99.90;;;;;;5082441;28;20523;-76
2023/07/30 11:32:25;;;;;;;7.75;1.80;;;20.00;99.90;;;;;;5086990;28;20043;-75
2023/07/30 11:34:55;;;;;;;13.23;2.58;;;19.90;99.90;;;;;;5083558;28;20158;-76
2023/07/30 11:37:22;;;;;;;9.77;1.83;;;19.90;99.90;;;;;;5087137;28;20040;-76
2023/07/30 11:39:48;;;;;;;12.02;2.35;;;19.90;99.90;;;;;;5080473;28;20043;-76
2023/07/30 11:42:14;;;;;;;13.98;2.10;;;19.90;99.90;;;;;;5074341;28;20558;-76
2023/07/30 11:44:41;;;;;;;10.60;2.30;;;20.00;99.90;;;;;;5079291;28;20048;-72
2023/07/30 11:47:09;;;;;;;10.95;2.20;;;20.00;99.90;;;;;;5079535;28;20052;-72
2023/07/30 11:49:35;;;;;;;10.88;2.00;;;20.10;99.90;;;;;;5080844;28;20122;-72
2023/07/30 11:52:10;;;;;;;11.20;2.20;;;20.20;99.90;;;;;;5074564;28;20040;-72
2023/07/30 11:54:37;;;;;;;10.18;1.55;;;20.20;99.90;;;;;;5075540;28;20124;-71
2023/07/30 11:57:03;;;;;;;12.05;1.98;;;20.10;99.90;;;;;;5065066;28;20036;-73
2023/07/30 11:59:31;;;;;;;9.98;2.15;;;20.10;99.90;;;;;;5078915;28;20054;-77
2023/07/30 12:01:57;;;;;;;10.48;1.83;;;20.00;99.90;;;;;;5085778;28;20127;-74
2023/07/30 12:04:24;;;;;;;10.45;2.13;;;19.80;99.90;;;;;;5082925;28;20075;-74
2023/07/30 12:06:53;;;;;;;10.50;2.20;;;19.80;99.90;;;;;;5082407;28;20579;-75
2023/07/30 12:09:23;;;;;;;10.85;2.40;;;19.70;99.90;;;;;;5083055;28;20074;-75
2023/07/30 12:11:58;;;;;;;8.73;2.30;;;19.60;99.90;;;;;;5085978;28;20097;-75
2023/07/30 12:14:30;;;;;;;13.07;2.30;;;19.50;99.90;;;;;;5085509;28;20598;-71
2023/07/30 12:17:05;;;;;;;10.73;1.80;;;19.40;99.90;;;;;;5085523;28;20500;-71
2023/07/30 12:19:31;;;;;;;9.60;1.80;;;19.40;99.90;;;;;;5084931;28;20439;-71
2023/07/30 12:21:57;;;;;;;6.80;1.40;;;19.50;99.90;;;;;;5083714;28;20125;-71
2023/07/30 12:24:22;;;;;;;6.88;1.50;;;19.50;99.90;;;;;;5081585;28;20465;-72
2023/07/30 12:26:48;;;;;;;11.75;2.08;;;19.60;99.90;;;;;;5084039;28;20051;-71
2023/07/30 12:29:14;;;;;;;5.40;1.58;;;19.70;99.90;;;;;;5085638;28;20036;-72
2023/07/30 12:31:40;;;;;;;9.75;1.88;;;19.70;99.90;;;;;;5076882;28;20055;-72
2023/07/30 12:34:05;;;;;;;9.40;2.00;;;19.80;99.90;;;;;;5081561;28;20052;-72
2023/07/30 12:36:31;;;;;;;10.55;2.35;;;19.80;99.90;;;;;;5084800;28;20754;-72